Weather Data

Pearl Creek Farm: 8878 N Farm Road 75, Walnut Grove MO 65770

<== Previous Day (Thursday 06 Nov 2014) | Next Day (Saturday 08 Nov 2014) ==>

Summary Precipitation Data For Friday 07 November 2014

ElementValueUnits
Precipitation0"
Notes(none)
SourcePearl Creek Farm

Summary Temperature Data For Friday 07 November 2014

ElementValueUnits
High Temperature61 oF
Low Temperature31 oF
Average Temperature44 oF
High Humidity91 %
Low Humidity46 %
Average Humidity71 %
SourcePearl Creek Farm

Detail Temperature Data For Friday 07 November 2014

Date / TimeTemp (F)RH (%)Dew Pt (F)Report Date / TimeSource
2014-11-07 00:00:00 34 85 29.8 2015-01-01 13:17:33 Pearl Creek Farm
2014-11-07 00:30:00 34 85 29.8 2015-01-01 13:17:33 Pearl Creek Farm
2014-11-07 01:00:00 34 85 30.0 2015-01-01 13:17:33 Pearl Creek Farm
2014-11-07 01:30:00 33 85 29.0 2015-01-01 13:17:33 Pearl Creek Farm
2014-11-07 02:00:00 33 85 29.0 2015-01-01 13:17:33 Pearl Creek Farm
2014-11-07 02:30:00 33 86 29.1 2015-01-01 13:17:33 Pearl Creek Farm
2014-11-07 03:00:00 32 86 28.2 2015-01-01 13:17:33 Pearl Creek Farm
2014-11-07 03:30:00 32 85 28.0 2015-01-01 13:17:33 Pearl Creek Farm
2014-11-07 04:00:00 32 85 28.0 2015-01-01 13:17:33 Pearl Creek Farm
2014-11-07 04:30:00 31 86 27.2 2015-01-01 13:17:33 Pearl Creek Farm
2014-11-07 05:00:00 31 87 27.5 2015-01-01 13:17:33 Pearl Creek Farm
2014-11-07 05:30:00 31 86 27.2 2015-01-01 13:17:33 Pearl Creek Farm
2014-11-07 06:00:00 31 86 27.3 2015-01-01 13:17:33 Pearl Creek Farm
2014-11-07 06:30:00 31 87 27.6 2015-01-01 13:17:33 Pearl Creek Farm
2014-11-07 07:00:00 32 87 28.6 2015-01-01 13:17:33 Pearl Creek Farm
2014-11-07 07:30:00 32 87 28.6 2015-01-01 13:17:33 Pearl Creek Farm
2014-11-07 08:00:00 33 89 30.0 2015-01-01 13:17:33 Pearl Creek Farm
2014-11-07 08:30:00 35 91 32.5 2015-01-01 13:17:33 Pearl Creek Farm
2014-11-07 09:00:00 38 88 34.6 2015-01-01 13:17:33 Pearl Creek Farm
2014-11-07 09:30:00 42 83 37.1 2015-01-01 13:17:33 Pearl Creek Farm
2014-11-07 10:00:00 45 74 37.2 2015-01-01 13:17:33 Pearl Creek Farm
2014-11-07 10:30:00 47 70 37.7 2015-01-01 13:17:33 Pearl Creek Farm
2014-11-07 11:00:00 49 67 38.4 2015-01-01 13:17:33 Pearl Creek Farm
2014-11-07 11:30:00 52 65 40.6 2015-01-01 13:17:33 Pearl Creek Farm
2014-11-07 12:00:00 54 56 38.7 2015-01-01 13:17:33 Pearl Creek Farm
2014-11-07 12:30:00 56 57 40.8 2015-01-01 13:17:33 Pearl Creek Farm
2014-11-07 13:00:00 57 53 40.1 2015-01-01 13:17:33 Pearl Creek Farm
2014-11-07 13:30:00 59 48 39.4 2015-01-01 13:17:33 Pearl Creek Farm
2014-11-07 14:00:00 60 49 40.5 2015-01-01 13:17:33 Pearl Creek Farm
2014-11-07 14:30:00 60 50 41.1 2015-01-01 13:17:33 Pearl Creek Farm
2014-11-07 15:00:00 61 48 41.2 2015-01-01 13:17:33 Pearl Creek Farm
2014-11-07 15:30:00 61 48 40.9 2015-01-01 13:17:33 Pearl Creek Farm
2014-11-07 16:00:00 60 46 39.2 2015-01-01 13:17:33 Pearl Creek Farm
2014-11-07 16:30:00 59 49 39.9 2015-01-01 13:17:33 Pearl Creek Farm
2014-11-07 17:00:00 57 51 38.8 2015-01-01 13:17:33 Pearl Creek Farm
2014-11-07 17:30:00 55 52 37.5 2015-01-01 13:17:33 Pearl Creek Farm
2014-11-07 18:00:00 54 54 37.5 2015-01-01 13:17:33 Pearl Creek Farm
2014-11-07 18:30:00 52 57 37.3 2015-01-01 13:17:33 Pearl Creek Farm
2014-11-07 19:00:00 49 64 37.2 2015-01-01 13:17:33 Pearl Creek Farm
2014-11-07 19:30:00 47 69 37.4 2015-01-01 13:17:33 Pearl Creek Farm
2014-11-07 20:00:00 45 74 37.1 2015-01-01 13:17:33 Pearl Creek Farm
2014-11-07 20:30:00 44 77 37.3 2015-01-01 13:17:33 Pearl Creek Farm
2014-11-07 21:00:00 45 73 36.9 2015-01-01 13:17:33 Pearl Creek Farm
2014-11-07 21:30:00 46 69 36.4 2015-01-01 13:17:33 Pearl Creek Farm
2014-11-07 22:00:00 47 68 37.0 2015-01-01 13:17:33 Pearl Creek Farm
2014-11-07 22:30:00 48 69 38.2 2015-01-01 13:17:33 Pearl Creek Farm
2014-11-07 23:00:00 48 69 38.3 2015-01-01 13:17:33 Pearl Creek Farm
2014-11-07 23:30:00 49 68 38.9 2015-01-01 13:17:33 Pearl Creek Farm

A total of 48 rows are displayed.